Time;durP1;ratioP1;P1;durP2;ratioP2;P2;SDS_P1;SDS_P2;PMS_P1;PMS_P2;Temp;Humidity;BMP_temperature;BMP_pressure;BME280_temperature;BME280_humidity;BME280_pressure;Samples;Min_cycle;Max_cycle;Signal;HPM_P1;HPM_P2
2021/06/16 00:02:00;;;;;;;4.75;4.28;;;;;;;21.71;54.36;95681.94;4995313;28;20223;-88
2021/06/16 00:04:26;;;;;;;4.35;3.95;;;;;;;21.64;54.76;95679.47;4995551;28;20310;-88
2021/06/16 00:06:52;;;;;;;4.70;4.20;;;;;;;21.67;54.78;95680.81;4996033;28;20210;-88
2021/06/16 00:09:19;;;;;;;6.10;4.05;;;;;;;21.66;54.93;95672.16;4996581;28;20211;-88
2021/06/16 00:11:47;;;;;;;4.80;4.00;;;;;;;21.68;54.67;95675.34;4995602;28;20232;-89
2021/06/16 00:14:13;;;;;;;6.85;3.85;;;;;;;21.71;54.76;95676.69;4995242;28;20869;-88
2021/06/16 00:16:41;;;;;;;9.15;4.22;;;;;;;21.79;54.08;95672.81;4993531;28;20204;-86
2021/06/16 00:19:08;;;;;;;4.07;3.67;;;;;;;21.76;54.53;95673.31;4993693;28;20199;-85
2021/06/16 00:21:34;;;;;;;6.13;4.30;;;;;;;21.73;54.19;95679.84;4993161;28;20238;-89
2021/06/16 00:24:01;;;;;;;5.13;3.90;;;;;;;21.71;54.36;95677.47;4993487;28;20235;-87
2021/06/16 00:26:27;;;;;;;4.18;3.78;;;;;;;21.65;54.54;95672.41;4993479;28;20209;-88
2021/06/16 00:28:55;;;;;;;5.05;3.70;;;;;;;21.64;54.65;95676.06;4993136;28;20674;-86
2021/06/16 00:31:22;;;;;;;5.35;3.75;;;;;;;21.67;54.40;95678.19;4993237;28;20274;-88
2021/06/16 00:33:48;;;;;;;4.05;3.42;;;;;;;21.67;54.10;95673.75;4993493;28;20222;-89
2021/06/16 00:36:15;;;;;;;4.18;3.78;;;;;;;21.64;53.86;95671.59;4993762;28;20312;-87
2021/06/16 00:38:41;;;;;;;5.03;3.60;;;;;;;21.71;53.69;95669.63;4993746;28;20214;-88
2021/06/16 00:41:08;;;;;;;5.40;3.90;;;;;;;21.61;54.23;95673.91;4993358;28;20214;-88
2021/06/16 00:43:34;;;;;;;6.90;3.67;;;;;;;21.63;54.02;95671.84;4993709;28;20210;-88
2021/06/16 00:46:02;;;;;;;4.03;3.47;;;;;;;21.61;53.70;95671.31;4993586;28;20513;-87
2021/06/16 00:48:29;;;;;;;4.22;3.83;;;;;;;21.64;53.43;95671.59;4994338;28;20204;-88
2021/06/16 00:50:55;;;;;;;3.50;3.20;;;;;;;21.64;53.42;95670.81;4993417;28;20214;-88
2021/06/16 00:53:22;;;;;;;3.50;3.20;;;;;;;21.62;53.47;95671.06;4993929;28;20231;-87
2021/06/16 00:55:48;;;;;;;3.50;3.25;;;;;;;21.59;53.13;95661.06;4994474;28;20843;-86
2021/06/16 00:58:15;;;;;;;3.42;2.95;;;;;;;21.56;53.14;95669.41;4993964;28;20206;-87
2021/06/16 01:00:44;;;;;;;3.78;3.30;;;;;;;21.57;53.02;95670.19;4993126;28;20217;-88
2021/06/16 01:03:16;;;;;;;3.90;3.60;;;;;;;21.49;53.72;95668.00;4993450;28;20228;-87
2021/06/16 01:05:46;;;;;;;5.07;3.28;;;;;;;21.59;53.01;95674.16;4993301;28;20223;-87
2021/06/16 01:08:18;;;;;;;4.03;3.63;;;;;;;21.65;52.95;95675.81;4993982;28;20203;-87
2021/06/16 01:10:48;;;;;;;4.38;3.58;;;;;;;21.57;53.39;95672.81;4993386;28;20306;-86
2021/06/16 01:13:22;;;;;;;4.65;3.70;;;;;;;21.55;53.40;95673.06;4993487;28;20238;-87
2021/06/16 01:15:57;;;;;;;3.78;3.33;;;;;;;21.53;53.47;95671.75;4993826;28;20219;-88
2021/06/16 01:18:26;;;;;;;3.75;2.83;;;;;;;21.50;53.19;95669.59;4993468;28;20199;-88
2021/06/16 01:20:55;;;;;;;5.13;3.33;;;;;;;21.44;53.51;95671.34;4992426;28;20203;-87
2021/06/16 01:23:55;;;;;;;3.20;2.90;;;;;;;21.42;53.49;95670.00;4993053;28;20231;-88
2021/06/16 01:26:28;;;;;;;2.90;2.70;;;;;;;21.42;52.64;95662.16;4992668;28;20283;-88
2021/06/16 01:29:01;;;;;;;4.72;3.17;;;;;;;21.37;52.81;95658.41;4990041;28;20727;-88
2021/06/16 01:31:28;;;;;;;4.38;3.00;;;;;;;21.40;52.34;95661.59;4999533;28;20224;-87
2021/06/16 01:33:54;;;;;;;4.00;3.15;;;;;;;21.46;51.81;95665.88;4999229;28;20282;-88
2021/06/16 01:36:25;;;;;;;3.70;2.80;;;;;;;21.51;51.24;95663.31;4999852;28;20208;-89
2021/06/16 01:38:53;;;;;;;3.88;2.78;;;;;;;21.51;51.11;95658.09;4999592;28;20215;-90
2021/06/16 01:41:20;;;;;;;5.15;2.80;;;;;;;21.47;51.28;95659.59;5000124;28;20247;-90
2021/06/16 01:43:50;;;;;;;4.30;2.83;;;;;;;21.39;51.45;95658.19;4998969;28;20275;-89
2021/06/16 01:46:18;;;;;;;2.67;2.47;;;;;;;21.30;51.48;95659.66;4996681;28;20671;-88
2021/06/16 01:48:46;;;;;;;3.30;2.65;;;;;;;21.33;50.97;95661.78;4999308;28;20210;-89
2021/06/16 01:51:13;;;;;;;2.72;2.50;;;;;;;21.32;50.34;95658.38;4998586;28;20203;-89
2021/06/16 01:53:41;;;;;;;3.25;2.47;;;;;;;21.38;50.52;95656.59;4999309;28;20204;-89
2021/06/16 01:56:09;;;;;;;3.67;2.60;;;;;;;21.37;50.33;95661.03;4999213;28;20210;-89
2021/06/16 01:58:36;;;;;;;2.80;2.50;;;;;;;21.37;50.15;95652.38;4999085;28;20226;-89
2021/06/16 02:01:06;;;;;;;2.65;2.35;;;;;;;21.31;50.28;95659.41;4998257;28;20568;-88
2021/06/16 02:03:32;;;;;;;3.67;2.65;;;;;;;21.30;50.10;95647.34;4998299;28;20203;-89
2021/06/16 02:05:59;;;;;;;2.53;2.33;;;;;;;21.30;50.05;95659.66;4998934;28;20227;-89
2021/06/16 02:08:29;;;;;;;2.53;2.30;;;;;;;21.27;49.76;95658.28;4998973;28;20200;-88
2021/06/16 02:10:56;;;;;;;2.70;2.50;;;;;;;21.29;49.43;95651.00;4997527;28;20199;-88
2021/06/16 02:13:27;;;;;;;3.47;2.40;;;;;;;21.30;49.95;95652.56;4998392;28;20249;-88
2021/06/16 02:15:56;;;;;;;4.43;2.20;;;;;;;21.29;49.44;95652.81;4997499;28;20223;-89
2021/06/16 02:18:29;;;;;;;2.25;2.05;;;;;;;21.27;49.68;95652.25;4998306;28;20208;-89
2021/06/16 02:20:56;;;;;;;4.45;2.47;;;;;;;21.25;49.23;95641.22;4998182;28;20227;-88
2021/06/16 02:23:23;;;;;;;2.35;2.15;;;;;;;21.21;49.24;95642.75;4997819;28;20222;-89
2021/06/16 02:25:50;;;;;;;4.80;2.30;;;;;;;21.25;49.14;95638.63;4997029;28;20250;-87
2021/06/16 02:28:17;;;;;;;3.03;2.47;;;;;;;21.18;49.36;95640.56;4998341;28;20692;-88
2021/06/16 02:30:43;;;;;;;2.53;2.33;;;;;;;21.21;49.42;95640.91;4997459;28;20208;-89
2021/06/16 02:33:09;;;;;;;3.10;2.25;;;;;;;21.16;50.10;95642.66;4996766;28;20789;-89
2021/06/16 02:35:37;;;;;;;2.90;2.20;;;;;;;21.15;49.92;95651.56;4997727;28;20204;-89
2021/06/16 02:38:08;;;;;;;2.40;2.20;;;;;;;21.13;50.12;95640.53;4997902;28;20207;-89
2021/06/16 02:40:41;;;;;;;4.63;2.65;;;;;;;21.07;50.62;95644.88;4997377;28;20211;-89
2021/06/16 02:43:08;;;;;;;2.80;2.60;;;;;;;20.96;50.87;95636.09;4997811;28;20234;-89
2021/06/16 02:45:35;;;;;;;3.55;2.35;;;;;;;20.90;51.10;95646.72;4997168;28;20230;-89
2021/06/16 02:48:03;;;;;;;4.63;2.67;;;;;;;20.89;51.06;95645.16;4997807;28;20214;-88
2021/06/16 02:50:31;;;;;;;2.72;2.33;;;;;;;20.88;51.30;95644.34;4997621;28;20214;-90
2021/06/16 02:53:02;;;;;;;3.83;2.55;;;;;;;20.90;51.35;95650.16;4996444;28;20230;-89
2021/06/16 02:55:29;;;;;;;2.50;2.25;;;;;;;20.78;52.45;95651.28;4996844;28;20729;-88
2021/06/16 02:57:57;;;;;;;3.38;2.28;;;;;;;20.63;52.28;95644.75;4996141;28;20214;-88
2021/06/16 03:00:23;;;;;;;2.60;2.40;;;;;;;20.57;52.38;95650.94;4997006;28;20203;-89
2021/06/16 03:02:51;;;;;;;3.33;2.63;;;;;;;20.56;52.48;95646.75;4996623;28;20230;-89
2021/06/16 03:05:22;;;;;;;2.75;2.55;;;;;;;20.56;52.66;95651.19;4996495;28;20224;-88
2021/06/16 03:07:49;;;;;;;3.53;2.45;;;;;;;20.61;52.90;95651.25;4996799;28;20200;-88
2021/06/16 03:10:18;;;;;;;2.90;2.50;;;;;;;20.53;53.40;95651.66;4997079;28;20222;-88
2021/06/16 03:12:47;;;;;;;2.67;2.47;;;;;;;20.46;53.16;95654.41;4996676;28;20231;-89
2021/06/16 03:15:15;;;;;;;3.05;2.83;;;;;;;20.23;54.31;95657.13;4996269;28;20202;-89
2021/06/16 03:17:44;;;;;;;3.65;2.95;;;;;;;19.99;55.26;95653.81;4996044;28;20200;-88
2021/06/16 03:20:13;;;;;;;2.85;2.65;;;;;;;19.99;55.60;95667.69;4996180;28;20211;-89
2021/06/16 03:22:40;;;;;;;3.40;3.10;;;;;;;20.05;55.63;95660.72;4995823;28;20234;-89
2021/06/16 03:25:08;;;;;;;2.55;2.35;;;;;;;20.08;54.67;95662.06;4995687;28;20314;-88
2021/06/16 03:27:37;;;;;;;3.10;2.70;;;;;;;20.06;55.64;95667.53;4996488;28;20739;-89
2021/06/16 03:30:05;;;;;;;3.00;2.60;;;;;;;20.11;55.38;95659.00;4995299;28;20208;-88
2021/06/16 03:32:35;;;;;;;3.00;2.80;;;;;;;20.11;55.18;95657.19;4994878;28;20235;-88
2021/06/16 03:35:02;;;;;;;2.80;2.60;;;;;;;20.16;54.68;95662.50;4996280;28;20204;-88
2021/06/16 03:37:29;;;;;;;4.40;3.13;;;;;;;20.23;55.14;95659.72;4995497;28;20207;-88
2021/06/16 03:39:58;;;;;;;5.30;2.80;;;;;;;20.23;55.04;95652.69;4995057;28;20215;-88
2021/06/16 03:42:25;;;;;;;3.15;2.70;;;;;;;20.22;55.59;95645.84;4995187;28;20223;-88
2021/06/16 03:44:55;;;;;;;2.85;2.60;;;;;;;20.21;55.34;95652.13;4995676;28;20211;-88
2021/06/16 03:47:26;;;;;;;3.58;2.65;;;;;;;20.18;55.66;95652.59;4995619;28;20204;-88
2021/06/16 03:49:54;;;;;;;4.10;2.40;;;;;;;20.18;55.13;95649.19;4995757;28;20203;-88
2021/06/16 03:52:22;;;;;;;2.63;2.42;;;;;;;20.23;54.82;95651.88;4994738;28;20221;-88
2021/06/16 03:54:50;;;;;;;2.60;2.40;;;;;;;20.27;55.14;95661.66;4995032;28;20211;-87
2021/06/16 03:57:20;;;;;;;4.35;2.60;;;;;;;20.27;55.27;95655.63;4981509;28;20196;-87
2021/06/16 03:59:48;;;;;;;5.13;2.92;;;;;;;20.31;55.05;95660.16;4975392;28;20645;-88
2021/06/16 04:02:19;;;;;;;3.28;2.67;;;;;;;20.38;54.62;95667.09;4974688;28;20223;-87
2021/06/16 04:04:46;;;;;;;2.75;2.55;;;;;;;20.48;55.79;95665.44;4974039;28;20750;-88
2021/06/16 04:07:15;;;;;;;3.42;2.78;;;;;;;20.62;54.50;95658.84;4974671;28;20212;-88
2021/06/16 04:09:42;;;;;;;3.28;2.70;;;;;;;20.83;56.24;95662.59;4974868;28;20204;-88
2021/06/16 04:12:10;;;;;;;3.38;2.80;;;;;;;20.98;55.46;95667.25;4984195;28;20219;-87
2021/06/16 04:14:38;;;;;;;3.30;2.58;;;;;;;21.17;54.84;95670.41;4994013;28;20204;-89
2021/06/16 04:17:05;;;;;;;3.55;2.72;;;;;;;21.17;52.94;95657.31;4992792;28;20714;-87
2021/06/16 04:19:33;;;;;;;3.22;2.88;;;;;;;21.21;53.54;95659.25;4992738;28;20215;-87
2021/06/16 04:22:00;;;;;;;5.90;2.63;;;;;;;21.34;54.06;95661.53;4989342;28;20223;-88
2021/06/16 04:24:26;;;;;;;4.60;2.78;;;;;;;21.51;53.07;95664.13;4990281;28;20573;-88
2021/06/16 04:26:53;;;;;;;4.30;3.13;;;;;;;21.62;52.96;95657.97;4989423;28;20242;-88
2021/06/16 04:29:19;;;;;;;2.80;2.60;;;;;;;21.73;52.35;95658.88;4989696;28;20252;-87
2021/06/16 04:31:46;;;;;;;4.10;2.45;;;;;;;21.75;52.05;95661.22;4989629;28;20231;-88
2021/06/16 04:34:13;;;;;;;3.05;2.75;;;;;;;21.78;52.04;95660.75;4990499;28;20242;-88
2021/06/16 04:36:41;;;;;;;3.55;2.60;;;;;;;21.88;51.97;95656.44;4990169;28;20203;-86
2021/06/16 04:39:08;;;;;;;4.32;3.08;;;;;;;22.01;51.73;95650.81;4989448;28;20227;-88
2021/06/16 04:41:37;;;;;;;3.00;2.70;;;;;;;22.17;51.66;95658.84;4983700;28;20227;-88
2021/06/16 04:44:04;;;;;;;3.90;2.70;;;;;;;22.25;51.04;95661.03;4983239;28;20204;-85
2021/06/16 04:46:34;;;;;;;3.88;2.83;;;;;;;22.37;50.86;95653.81;4993873;28;20230;-85
2021/06/16 04:49:01;;;;;;;3.33;2.25;;;;;;;22.39;50.24;95657.75;4993361;28;20699;-85
2021/06/16 04:51:28;;;;;;;2.70;2.40;;;;;;;22.45;50.11;95657.81;4991954;28;20295;-85
2021/06/16 04:53:56;;;;;;;3.97;2.65;;;;;;;22.48;49.37;95659.94;4992002;28;20573;-86
2021/06/16 04:56:32;;;;;;;3.15;2.95;;;;;;;22.49;49.08;95667.56;4993095;28;20718;-86
2021/06/16 04:59:06;;;;;;;2.83;2.53;;;;;;;22.50;49.08;95663.91;5004986;28;20199;-85
2021/06/16 05:01:36;;;;;;;3.33;2.97;;;;;;;22.50;48.92;95661.28;4991612;28;20215;-85
2021/06/16 05:04:02;;;;;;;2.92;2.63;;;;;;;22.62;49.55;95663.75;4992545;28;20873;-84
2021/06/16 05:06:31;;;;;;;2.60;2.40;;;;;;;22.79;50.14;95661.00;4992399;28;20238;-86
2021/06/16 05:08:59;;;;;;;2.47;2.28;;;;;;;22.91;49.50;95662.41;4988546;28;20207;-87
2021/06/16 05:11:55;;;;;;;5.55;2.97;;;;;;;22.94;49.46;95666.38;4996104;28;20246;-87
2021/06/16 05:14:24;;;;;;;3.20;2.70;;;;;;;23.02;49.33;95658.81;4969831;28;20688;-86
2021/06/16 05:17:05;;;;;;;3.65;2.95;;;;;;;22.86;49.10;95654.50;4969177;28;20580;-88
2021/06/16 05:19:40;;;;;;;4.82;2.97;;;;;;;22.74;49.60;95657.25;4969696;28;20207;-88
2021/06/16 05:22:17;;;;;;;5.65;4.18;;;;;;;22.86;49.95;95656.34;4983719;28;20245;-88
2021/06/16 05:24:55;;;;;;;29.23;26.33;;;;;;;23.02;49.31;95658.81;4993001;28;20211;-89
2021/06/16 05:28:04;;;;;;;15.75;14.20;;;;;;;23.18;48.62;95659.72;4991849;28;20681;-88
2021/06/16 05:30:46;;;;;;;4.57;4.18;;;;;;;23.27;48.51;95652.94;4949665;28;20235;-89
2021/06/16 05:39:36;;;;;;;5.55;3.75;;;;;;;23.43;48.55;95656.44;4949579;28;20209;-88
2021/06/16 05:45:15;;;;;;;3.72;3.42;;;;;;;23.58;48.58;95661.00;4990642;28;20215;-88
2021/06/16 05:48:02;;;;;;;5.88;3.47;;;;;;;23.70;48.34;95661.56;4992659;28;20294;-89
2021/06/16 05:50:29;;;;;;;3.58;3.17;;;;;;;23.61;48.22;95661.28;4993192;28;20298;-86
2021/06/16 05:52:55;;;;;;;5.65;3.60;;;;;;;23.75;48.45;95664.22;4995045;28;20441;-86
2021/06/16 05:55:22;;;;;;;3.15;2.85;;;;;;;23.82;48.05;95654.28;4995030;28;20203;-85
2021/06/16 05:57:50;;;;;;;4.43;2.90;;;;;;;23.94;47.39;95652.19;4994656;28;20214;-87
2021/06/16 06:00:17;;;;;;;3.38;2.60;;;;;;;24.00;47.77;95655.66;4996982;28;20398;-87
2021/06/16 06:02:43;;;;;;;3.38;2.65;;;;;;;23.67;47.11;95657.63;4995460;28;20250;-87
2021/06/16 06:05:11;;;;;;;3.88;2.40;;;;;;;23.49;48.03;95652.78;4996883;28;20224;-87
2021/06/16 06:07:38;;;;;;;3.05;2.65;;;;;;;23.48;48.01;95661.69;4996935;28;20671;-87
2021/06/16 06:10:06;;;;;;;4.70;2.75;;;;;;;23.42;47.67;95653.03;4996451;28;20215;-88
2021/06/16 06:12:33;;;;;;;6.00;2.75;;;;;;;23.46;47.31;95657.78;4996025;28;20219;-87
2021/06/16 06:15:00;;;;;;;4.25;2.78;;;;;;;23.56;47.48;95656.00;4996358;28;20195;-87
2021/06/16 06:17:27;;;;;;;4.75;3.05;;;;;;;23.63;47.25;95661.03;4997485;28;20219;-87
2021/06/16 06:19:53;;;;;;;3.75;2.45;;;;;;;23.72;47.23;95662.09;4996943;28;20211;-89
2021/06/16 06:22:20;;;;;;;4.70;3.13;;;;;;;23.70;46.30;95654.47;4996456;28;20238;-88
2021/06/16 06:24:50;;;;;;;5.97;2.55;;;;;;;23.65;46.16;95657.09;4998134;28;20214;-87
2021/06/16 06:27:16;;;;;;;5.47;2.80;;;;;;;23.66;46.39;95653.44;4997254;28;20812;-87
2021/06/16 06:29:55;;;;;;;7.57;2.75;;;;;;;23.74;46.41;95652.13;4997716;28;20261;-87
2021/06/16 06:32:26;;;;;;;3.67;2.45;;;;;;;23.81;45.54;95649.28;4991932;28;20494;-87
2021/06/16 06:34:53;;;;;;;4.40;2.67;;;;;;;23.86;46.04;95650.06;4993612;28;20202;-86
2021/06/16 06:37:26;;;;;;;2.80;2.50;;;;;;;23.95;46.33;95648.53;4977530;28;20212;-87
2021/06/16 06:39:56;;;;;;;4.25;3.00;;;;;;;23.85;46.94;95643.25;4991960;28;20203;-87
2021/06/16 06:42:22;;;;;;;5.75;2.70;;;;;;;23.89;45.78;95643.50;4994834;28;20231;-87
2021/06/16 06:44:49;;;;;;;3.17;2.58;;;;;;;23.99;46.04;95646.16;4996550;28;20199;-87
2021/06/16 06:47:15;;;;;;;6.85;3.05;;;;;;;24.04;45.75;95633.03;4995183;28;20224;-87
2021/06/16 06:49:46;;;;;;;6.15;2.95;;;;;;;24.04;46.30;95630.41;4994178;28;20205;-87
2021/06/16 06:52:13;;;;;;;3.72;2.58;;;;;;;24.10;45.67;95639.88;4993258;28;20219;-87
2021/06/16 06:54:40;;;;;;;5.80;3.38;;;;;;;24.13;45.39;95634.09;4997605;28;20263;-87
2021/06/16 06:57:07;;;;;;;5.03;3.08;;;;;;;24.11;46.00;95638.81;4998133;28;20203;-86
2021/06/16 06:59:34;;;;;;;3.63;2.88;;;;;;;24.18;45.57;95639.38;4996767;28;20235;-89
2021/06/16 07:02:01;;;;;;;4.63;2.72;;;;;;;24.31;45.71;95635.47;4995673;28;20255;-86
2021/06/16 07:04:27;;;;;;;6.57;3.00;;;;;;;24.43;45.65;95633.41;4999282;28;20211;-86
2021/06/16 07:06:55;;;;;;;7.78;2.95;;;;;;;24.55;45.81;95627.84;4999587;28;20238;-87
2021/06/16 07:09:23;;;;;;;5.63;2.92;;;;;;;24.61;44.83;95624.19;4999404;28;20207;-88
2021/06/16 07:11:50;;;;;;;4.90;3.53;;;;;;;24.64;43.78;95623.63;4996445;28;20322;-88
2021/06/16 07:14:16;;;;;;;4.30;2.50;;;;;;;24.68;44.98;95636.00;4994845;28;20206;-86
2021/06/16 07:16:44;;;;;;;6.32;3.40;;;;;;;24.79;45.41;95629.72;5000879;28;20203;-87
2021/06/16 07:19:10;;;;;;;6.75;2.83;;;;;;;24.93;45.11;95629.94;4994584;28;20211;-88
2021/06/16 07:21:37;;;;;;;8.70;3.35;;;;;;;24.96;44.56;95631.28;4996131;28;20215;-88
2021/06/16 07:24:09;;;;;;;6.20;3.40;;;;;;;24.99;43.79;95631.56;4998733;28;20196;-88
2021/06/16 07:26:36;;;;;;;9.57;3.30;;;;;;;25.04;44.21;95623.63;4998910;28;20239;-88
2021/06/16 07:29:02;;;;;;;3.40;3.08;;;;;;;25.16;43.82;95623.34;4994132;28;20204;-87
2021/06/16 07:31:29;;;;;;;10.77;3.83;;;;;;;25.25;44.82;95626.22;4995656;28;20206;-87
2021/06/16 07:33:56;;;;;;;8.35;3.33;;;;;;;25.33;45.25;95620.41;4996997;28;20717;-87
2021/06/16 07:36:23;;;;;;;6.32;3.70;;;;;;;25.32;45.59;95618.81;4997511;28;20239;-86
2021/06/16 07:38:49;;;;;;;5.32;3.72;;;;;;;25.31;44.00;95609.34;4995129;28;20219;-87
2021/06/16 07:41:17;;;;;;;5.00;3.50;;;;;;;25.38;43.68;95615.91;4996148;28;20203;-87
2021/06/16 07:43:44;;;;;;;10.02;3.85;;;;;;;25.47;43.58;95610.88;4995265;28;20717;-87
2021/06/16 07:46:10;;;;;;;7.15;3.42;;;;;;;25.57;43.27;95617.97;5000035;28;20226;-86
2021/06/16 07:48:37;;;;;;;6.82;3.53;;;;;;;25.67;42.33;95615.28;5018983;28;20206;-86
2021/06/16 07:51:04;;;;;;;5.80;3.42;;;;;;;25.80;42.90;95618.13;5017777;28;20692;-87
2021/06/16 07:53:33;;;;;;;7.97;3.58;;;;;;;25.82;42.09;95612.59;5017395;28;20658;-87
2021/06/16 07:55:59;;;;;;;8.77;3.50;;;;;;;25.91;42.20;95612.81;5015975;28;20206;-87
2021/06/16 07:58:29;;;;;;;6.00;3.28;;;;;;;26.05;41.71;95600.59;5017843;28;20195;-88
2021/06/16 08:00:56;;;;;;;6.95;3.38;;;;;;;26.09;42.46;95607.69;5017521;28;20290;-87
2021/06/16 08:03:24;;;;;;;8.23;3.50;;;;;;;26.15;42.23;95609.25;5016371;28;20222;-88
2021/06/16 08:05:51;;;;;;;3.60;3.22;;;;;;;26.24;41.28;95609.44;5006924;28;20230;-88
2021/06/16 08:08:18;;;;;;;4.25;3.25;;;;;;;26.29;41.23;95608.63;5000309;28;20215;-87
2021/06/16 08:10:44;;;;;;;7.57;3.53;;;;;;;26.25;39.81;95608.38;4998654;28;20203;-86
2021/06/16 08:13:11;;;;;;;6.22;3.20;;;;;;;26.32;40.23;95616.81;4994303;28;20279;-88
2021/06/16 08:15:39;;;;;;;5.53;2.90;;;;;;;26.32;39.41;95608.09;4994678;28;20200;-87
2021/06/16 08:18:12;;;;;;;4.63;2.95;;;;;;;26.33;38.65;95610.47;4998688;28;20205;-87
2021/06/16 08:20:42;;;;;;;5.18;2.78;;;;;;;26.28;38.42;95613.13;4992318;28;20202;-87
2021/06/16 08:23:10;;;;;;;3.05;2.78;;;;;;;26.34;37.56;95608.63;4991502;28;20223;-88
2021/06/16 08:25:37;;;;;;;3.38;2.70;;;;;;;26.54;38.14;95605.03;4992303;28;20674;-86
2021/06/16 08:28:11;;;;;;;6.43;2.97;;;;;;;26.68;37.15;95596.19;4993940;28;20234;-88
2021/06/16 08:30:39;;;;;;;3.65;2.92;;;;;;;26.77;36.80;95605.09;4994603;28;20195;-88
2021/06/16 08:33:06;;;;;;;7.05;2.60;;;;;;;26.92;37.99;95606.81;4992853;28;20918;-88
2021/06/16 08:35:32;;;;;;;5.75;2.70;;;;;;;27.11;38.48;95606.91;4992584;28;20266;-87
2021/06/16 08:37:59;;;;;;;5.32;2.75;;;;;;;27.15;36.60;95602.63;4993280;28;20203;-87
2021/06/16 08:40:26;;;;;;;3.63;2.75;;;;;;;27.21;36.58;95598.88;4999284;28;20671;-88
2021/06/16 08:42:52;;;;;;;4.43;2.53;;;;;;;27.31;36.85;95603.28;4993271;28;20219;-88
2021/06/16 08:45:20;;;;;;;4.68;2.72;;;;;;;27.41;35.79;95596.00;4993233;28;20234;-87
2021/06/16 08:47:49;;;;;;;4.03;2.70;;;;;;;27.48;35.94;95603.59;4992870;28;20223;-88
2021/06/16 08:50:18;;;;;;;2.85;2.50;;;;;;;27.61;35.95;95602.94;4993194;28;20204;-88
2021/06/16 08:52:46;;;;;;;4.03;2.70;;;;;;;27.62;34.97;95601.09;4990223;28;20223;-87
2021/06/16 08:55:16;;;;;;;4.50;2.60;;;;;;;27.67;35.25;95608.97;4991160;28;20213;-87
2021/06/16 08:57:43;;;;;;;3.65;2.63;;;;;;;27.60;34.35;95600.56;4996503;28;20574;-88
2021/06/16 09:00:16;;;;;;;3.25;2.58;;;;;;;27.61;35.43;95602.16;4999642;28;20207;-86
2021/06/16 09:02:43;;;;;;;4.28;2.45;;;;;;;27.82;35.30;95603.47;4997366;28;20219;-87
2021/06/16 09:05:13;;;;;;;5.18;2.60;;;;;;;27.96;34.23;95598.25;4996564;28;20219;-86
2021/06/16 09:07:44;;;;;;;6.30;2.78;;;;;;;28.19;33.95;95592.91;5007426;28;20307;-87
2021/06/16 09:10:13;;;;;;;4.25;2.35;;;;;;;28.22;33.62;95586.25;4999422;28;20211;-88
2021/06/16 09:12:44;;;;;;;2.85;2.55;;;;;;;28.32;33.96;95594.03;4999293;28;20233;-87
2021/06/16 09:15:20;;;;;;;3.58;2.53;;;;;;;28.38;33.70;95587.59;4998990;28;20203;-87
2021/06/16 09:18:03;;;;;;;2.50;2.30;;;;;;;28.58;33.55;95585.69;4999015;28;20202;-87
2021/06/16 09:21:15;;;;;;;3.75;2.42;;;;;;;28.58;33.11;95589.13;4997985;28;20203;-87
2021/06/16 09:23:42;;;;;;;4.32;2.40;;;;;;;28.55;32.32;95581.75;4993607;28;20210;-87
2021/06/16 09:26:14;;;;;;;5.03;2.72;;;;;;;28.68;33.51;95585.50;5000095;28;20217;-87
2021/06/16 09:32:20;;;;;;;9.73;2.60;;;;;;;28.68;31.59;95585.50;4996289;28;20239;-88
2021/06/16 09:34:55;;;;;;;3.95;2.40;;;;;;;28.87;32.64;95586.28;4997617;28;20556;-87
2021/06/16 09:37:22;;;;;;;3.85;2.60;;;;;;;29.09;34.07;95585.63;5006569;28;20206;-88
2021/06/16 09:40:03;;;;;;;4.38;3.00;;;;;;;29.13;33.43;95583.97;5001869;28;20202;-88
2021/06/16 09:42:31;;;;;;;4.68;2.45;;;;;;;29.27;33.67;95571.47;4994715;28;20219;-88
2021/06/16 09:48:31;;;;;;;2.95;2.42;;;;;;;29.01;31.06;95584.44;4968921;28;20621;-87
2021/06/16 09:51:19;;;;;;;3.28;2.33;;;;;;;29.09;30.66;95578.44;4979033;28;20196;-89
2021/06/16 09:53:58;;;;;;;2.92;2.30;;;;;;;29.39;30.56;95568.34;4978361;28;20263;-87
2021/06/16 09:56:26;;;;;;;3.53;2.50;;;;;;;29.55;30.69;95575.72;4978968;28;20208;-88
2021/06/16 09:58:53;;;;;;;2.60;2.30;;;;;;;29.76;31.95;95577.97;4988181;28;20206;-87
2021/06/16 10:01:20;;;;;;;2.50;2.30;;;;;;;29.63;30.72;95568.16;4982639;28;20199;-88
2021/06/16 10:03:47;;;;;;;2.65;2.45;;;;;;;29.61;31.30;95575.63;4978670;28;20208;-88
2021/06/16 10:06:17;;;;;;;4.65;2.33;;;;;;;29.60;31.51;95569.53;4991087;28;20235;-88
2021/06/16 10:08:45;;;;;;;2.75;2.30;;;;;;;29.80;30.99;95571.78;4997003;28;20571;-87
2021/06/16 10:11:14;;;;;;;2.45;2.25;;;;;;;29.73;30.47;95567.94;4997263;28;20207;-87
2021/06/16 10:13:41;;;;;;;2.60;2.30;;;;;;;29.74;31.01;95578.25;4996369;28;20347;-86
2021/06/16 10:16:09;;;;;;;2.47;2.28;;;;;;;30.01;30.92;95572.13;4996406;28;20218;-88
2021/06/16 10:18:41;;;;;;;3.03;2.30;;;;;;;30.02;29.59;95570.28;4997667;28;20191;-87
2021/06/16 10:21:13;;;;;;;2.70;2.50;;;;;;;29.89;30.03;95571.81;4997582;28;20200;-87
2021/06/16 10:23:40;;;;;;;2.55;2.35;;;;;;;29.79;30.58;95566.75;4997022;28;20242;-88
2021/06/16 10:26:12;;;;;;;3.78;2.25;;;;;;;29.75;29.40;95563.13;4995153;28;20563;-86
2021/06/16 10:28:46;;;;;;;2.95;2.53;;;;;;;29.99;29.33;95554.94;4997815;28;20305;-84
2021/06/16 10:31:18;;;;;;;3.78;2.10;;;;;;;30.09;30.14;95555.47;4997730;28;20266;-87
2021/06/16 10:33:54;;;;;;;4.32;2.50;;;;;;;30.16;30.75;95549.75;4996944;28;20231;-88
2021/06/16 10:36:22;;;;;;;3.58;2.70;;;;;;;30.17;29.63;95553.97;4998756;28;20213;-87
2021/06/16 10:39:13;;;;;;;3.75;2.55;;;;;;;30.35;30.51;95549.56;4998564;28;20211;-86
2021/06/16 10:41:59;;;;;;;2.60;2.33;;;;;;;30.43;29.65;95546.16;4985357;28;20226;-88
2021/06/16 10:44:31;;;;;;;9.02;2.63;;;;;;;30.42;30.16;95544.59;4997675;28;20579;-87
2021/06/16 10:46:59;;;;;;;2.58;2.05;;;;;;;30.35;29.94;95545.03;4998020;28;20223;-88
2021/06/16 10:49:50;;;;;;;3.88;2.30;;;;;;;30.33;29.02;95535.81;4996797;28;20652;-87
2021/06/16 10:52:19;;;;;;;2.40;2.20;;;;;;;30.33;29.07;95536.59;4995253;28;20254;-89
2021/06/16 10:54:54;;;;;;;4.65;2.08;;;;;;;30.46;29.33;95530.41;4996674;28;20343;-87
2021/06/16 10:57:20;;;;;;;2.85;2.25;;;;;;;30.24;28.46;95538.38;4996786;28;20306;-87
2021/06/16 11:00:07;;;;;;;3.67;2.30;;;;;;;30.30;29.58;95539.84;4996580;28;20664;-87
2021/06/16 11:03:05;;;;;;;2.42;2.20;;;;;;;30.28;28.96;95536.69;4994891;28;20963;-87
2021/06/16 11:05:38;;;;;;;3.10;2.30;;;;;;;30.29;29.47;95530.31;4994479;28;20226;-87
2021/06/16 11:08:05;;;;;;;3.47;2.17;;;;;;;30.46;29.52;95530.41;4996021;28;20290;-87
2021/06/16 11:10:51;;;;;;;3.75;2.35;;;;;;;30.46;28.99;95534.94;4996037;28;20266;-88
2021/06/16 11:13:36;;;;;;;3.45;2.50;;;;;;;30.46;29.18;95532.28;4993609;28;20238;-87
2021/06/16 11:16:42;;;;;;;2.58;2.38;;;;;;;30.44;29.75;95534.44;4995098;28;20207;-87
2021/06/16 11:19:39;;;;;;;2.75;2.50;;;;;;;30.64;28.92;95526.00;4995533;28;20213;-87
2021/06/16 11:22:29;;;;;;;5.70;2.30;;;;;;;30.73;29.56;95529.50;4995288;28;20223;-88
2021/06/16 11:25:06;;;;;;;3.15;2.22;;;;;;;30.78;27.79;95524.06;4995957;28;20839;-87
2021/06/16 11:27:58;;;;;;;2.08;1.95;;;;;;;30.78;27.68;95524.06;4995750;28;20218;-87
2021/06/16 11:30:38;;;;;;;2.10;2.00;;;;;;;30.71;27.64;95517.59;4992703;28;20208;-86
2021/06/16 11:33:26;;;;;;;3.47;2.00;;;;;;;30.66;28.16;95515.84;4990949;28;20561;-86
2021/06/16 11:35:58;;;;;;;2.83;2.13;;;;;;;30.79;28.43;95519.53;4993602;28;20242;-87
2021/06/16 11:38:30;;;;;;;2.50;2.30;;;;;;;30.86;28.88;95519.84;4996048;28;20238;-87
2021/06/16 11:40:59;;;;;;;2.22;2.03;;;;;;;30.98;29.33;95525.38;4993583;28;20203;-87
2021/06/16 11:43:34;;;;;;;4.35;2.45;;;;;;;31.05;29.34;95524.94;4994798;28;20228;-87
2021/06/16 11:46:03;;;;;;;5.97;2.38;;;;;;;31.01;28.62;95516.78;4989900;28;20682;-87
2021/06/16 11:48:31;;;;;;;5.78;2.47;;;;;;;31.05;28.52;95515.06;4992082;28;20321;-87
2021/06/16 11:50:57;;;;;;;2.38;2.17;;;;;;;31.02;28.56;95517.56;5006502;28;20582;-86
2021/06/16 11:53:30;;;;;;;3.92;2.70;;;;;;;31.03;29.32;95519.91;4995750;28;20223;-87
2021/06/16 11:56:00;;;;;;;2.65;2.38;;;;;;;30.98;30.05;95513.97;4996031;28;20210;-86
2021/06/16 11:58:31;;;;;;;3.25;2.10;;;;;;;31.07;29.99;95507.56;4997791;28;20218;-86
2021/06/16 12:01:14;;;;;;;3.03;2.60;;;;;;;31.09;29.38;95502.72;4994691;28;20588;-87
2021/06/16 12:03:43;;;;;;;6.30;2.40;;;;;;;31.15;28.58;95501.53;4994836;28;20261;-87
2021/06/16 12:06:16;;;;;;;5.68;2.40;;;;;;;31.12;28.73;95493.38;4995792;28;20617;-88